Time;durP1;ratioP1;P1;durP2;ratioP2;P2;SDS_P1;SDS_P2;PMS_P1;PMS_P2;Temp;Humidity;BMP_temperature;BMP_pressure;BME280_temperature;BME280_humidity;BME280_pressure;Samples;Min_cycle;Max_cycle;Signal;HPM_P1;HPM_P2
2022/02/05 00:01:38;;;;;;;4.35;1.10;;;;;;;4.78;70.41;100753.88;5025541;28;20401;-84
2022/02/05 00:03:59;;;;;;;2.63;1.38;;;;;;;4.80;69.86;100765.25;5028737;28;20924;-84
2022/02/05 00:06:31;;;;;;;3.63;1.20;;;;;;;4.78;70.65;100768.13;5015515;28;20424;-84
2022/02/05 00:09:12;;;;;;;4.03;1.43;;;;;;;4.69;71.10;100766.66;5027780;28;20513;-85
2022/02/05 00:38:53;;;;;;;4.30;1.00;;;;;;;4.17;71.11;100783.28;5024181;28;20430;-85
2022/02/05 00:42:08;;;;;;;2.95;1.35;;;;;;;4.25;71.70;100806.44;5015156;28;20389;-85
2022/02/05 00:44:07;;;;;;;5.25;2.40;;;;;;;4.25;71.60;100806.44;5014888;28;20416;-85
2022/02/05 00:46:37;;;;;;;4.70;3.10;;;;;;;4.21;71.47;100810.53;5010780;28;20389;-85
2022/02/05 00:49:02;;;;;;;5.45;1.50;;;;;;;4.30;70.94;100810.19;5017114;28;20407;-85
2022/02/05 00:51:33;;;;;;;8.10;1.47;;;;;;;4.31;70.66;100808.34;5012315;28;20418;-84
2022/02/05 00:56:48;;;;;;;4.32;1.27;;;;;;;4.24;71.08;100821.72;5020911;28;20411;-84
2022/02/05 00:59:13;;;;;;;4.00;1.30;;;;;;;4.27;70.61;100826.69;5028050;28;20775;-85
2022/02/05 01:01:39;;;;;;;1.63;0.95;;;;;;;4.31;70.61;100829.81;5023618;28;20408;-84
2022/02/05 01:04:04;;;;;;;3.13;1.10;;;;;;;4.28;71.48;100840.94;5013905;28;20887;-85
2022/02/05 01:06:30;;;;;;;4.93;1.48;;;;;;;4.27;71.68;100844.63;5025395;28;20504;-84
2022/02/05 01:08:55;;;;;;;7.40;1.83;;;;;;;4.26;71.97;100843.78;5013786;28;20732;-85
2022/02/05 01:11:20;;;;;;;4.97;1.50;;;;;;;4.23;71.24;100846.03;5017594;28;20403;-85
2022/02/05 01:13:46;;;;;;;6.43;1.70;;;;;;;4.22;71.49;100850.56;5022522;28;20422;-85
2022/02/05 01:16:26;;;;;;;2.90;1.40;;;;;;;4.18;71.73;100854.69;5026911;28;20403;-85
2022/02/05 01:18:51;;;;;;;4.40;1.17;;;;;;;4.03;72.51;100860.09;5009037;28;20728;-85
2022/02/05 01:21:35;;;;;;;4.80;1.43;;;;;;;4.05;72.26;100863.41;5025028;28;20487;-84
2022/02/05 01:24:04;;;;;;;6.28;1.30;;;;;;;4.06;71.24;100865.09;5026305;28;20515;-85
2022/02/05 01:26:36;;;;;;;2.75;1.10;;;;;;;4.08;71.69;100871.06;5018017;28;20967;-84
2022/02/05 01:29:07;;;;;;;3.70;1.63;;;;;;;4.08;71.76;100872.94;5027282;28;20410;-84
2022/02/05 01:31:43;;;;;;;4.43;1.50;;;;;;;4.05;72.06;100876.81;5021336;28;20404;-85
2022/02/05 01:34:27;;;;;;;2.28;2.00;;;;;;;3.95;72.76;100884.34;5017042;28;20939;-85
2022/02/05 02:09:30;;;;;;;4.75;2.67;;;;;;;3.83;74.69;100901.16;5025651;28;20402;-86
2022/02/05 02:10:15;;;;;;;6.00;2.55;;;;;;;3.81;75.10;100896.00;5030957;28;21026;-84
2022/02/05 02:12:50;;;;;;;3.67;2.47;;;;;;;3.78;75.01;100893.69;5018608;28;20764;-85
2022/02/05 02:15:23;;;;;;;3.25;2.47;;;;;;;3.73;75.62;100881.88;5022800;28;20419;-85
2022/02/05 02:21:20;;;;;;;8.95;3.15;;;;;;;3.72;75.45;100889.09;5008068;28;20415;-85
2022/02/05 02:24:09;;;;;;;5.18;3.40;;;;;;;3.72;76.06;100889.09;5026140;28;20400;-85
2022/02/05 02:29:33;;;;;;;4.13;3.03;;;;;;;3.48;77.22;100892.09;5029644;28;20453;-85
2022/02/05 02:31:58;;;;;;;5.28;2.95;;;;;;;3.46;77.13;100894.13;5020458;28;20793;-86
2022/02/05 02:34:29;;;;;;;3.63;2.70;;;;;;;3.37;77.74;100889.91;5021553;28;20445;-85
2022/02/05 02:36:59;;;;;;;6.05;3.35;;;;;;;3.29;78.04;100898.06;5019219;28;20401;-85
2022/02/05 02:39:39;;;;;;;8.00;3.08;;;;;;;3.37;77.93;100893.41;5021852;28;20498;-85
2022/02/05 02:42:10;;;;;;;5.95;2.85;;;;;;;3.34;77.82;100901.00;5021040;28;20411;-85
2022/02/05 02:44:35;;;;;;;5.53;2.85;;;;;;;3.35;78.05;100900.81;5034005;28;20434;-86
2022/02/05 02:47:00;;;;;;;5.17;2.47;;;;;;;3.22;78.56;100900.66;5017541;28;20408;-86
2022/02/05 02:49:43;;;;;;;7.63;2.60;;;;;;;3.21;78.59;100900.84;5018352;28;20457;-86
2022/02/05 02:57:52;;;;;;;6.05;2.67;;;;;;;3.23;78.17;100902.28;5020394;28;20409;-86
2022/02/05 03:00:17;;;;;;;6.13;2.70;;;;;;;3.12;78.69;100908.16;5022219;28;20492;-85
2022/02/05 03:02:42;;;;;;;3.80;2.17;;;;;;;3.29;78.15;100906.09;5018820;28;20421;-85
2022/02/05 03:05:08;;;;;;;7.37;2.53;;;;;;;3.34;77.73;100909.88;5029324;28;20415;-85
2022/02/05 03:07:33;;;;;;;5.90;2.63;;;;;;;3.38;77.86;100918.38;5017206;28;20514;-85
2022/02/05 03:09:58;;;;;;;7.67;2.60;;;;;;;3.38;77.40;100913.84;5024777;28;20410;-85
2022/02/05 03:12:24;;;;;;;6.07;2.70;;;;;;;3.42;77.27;100914.31;5019504;28;20764;-86
2022/02/05 03:14:51;;;;;;;3.65;2.30;;;;;;;3.24;77.79;100929.91;5014377;28;20424;-86
2022/02/05 03:17:18;;;;;;;4.90;2.25;;;;;;;3.13;78.51;100928.53;5025940;28;20423;-86
2022/02/05 03:19:46;;;;;;;4.82;2.50;;;;;;;3.08;78.72;100934.47;5022679;28;20404;-86
2022/02/05 03:22:13;;;;;;;3.60;2.60;;;;;;;3.13;78.39;100924.00;5026996;28;20882;-86
2022/02/05 03:24:38;;;;;;;3.70;2.42;;;;;;;3.06;78.34;100933.00;5017396;28;20424;-86
2022/02/05 03:27:04;;;;;;;4.83;2.40;;;;;;;3.05;78.70;100928.63;5011098;28;20784;-86
2022/02/05 03:29:29;;;;;;;7.40;2.17;;;;;;;2.97;78.86;100931.41;5032489;28;20407;-87
2022/02/05 03:31:55;;;;;;;6.30;2.50;;;;;;;2.93;78.90;100932.81;5018595;28;20385;-86
2022/02/05 03:34:20;;;;;;;4.60;2.70;;;;;;;2.87;79.26;100930.81;5017774;28;20516;-85
2022/02/05 03:36:45;;;;;;;5.37;2.50;;;;;;;2.83;79.65;100934.91;5030609;28;20445;-85
2022/02/05 03:39:10;;;;;;;5.83;2.20;;;;;;;2.95;78.97;100934.28;5010101;28;20505;-86
2022/02/05 03:41:36;;;;;;;3.70;2.53;;;;;;;2.97;78.69;100942.09;5022560;28;20432;-86
2022/02/05 03:44:01;;;;;;;4.37;2.10;;;;;;;3.03;79.11;100941.38;5023274;28;20763;-85
2022/02/05 03:46:27;;;;;;;6.83;2.33;;;;;;;3.04;78.69;100943.88;5016224;28;20394;-85
2022/02/05 03:48:52;;;;;;;14.67;6.43;;;;;;;3.05;78.37;100947.38;5023635;28;20457;-86
2022/02/05 03:51:17;;;;;;;10.52;5.30;;;;;;;3.00;78.93;100945.25;5021872;28;20478;-86
2022/02/05 03:53:43;;;;;;;5.17;2.77;;;;;;;3.03;78.74;100947.56;5012396;28;20777;-86
2022/02/05 03:56:08;;;;;;;7.77;3.57;;;;;;;3.03;78.88;100946.75;5029070;28;20388;-86
2022/02/05 03:58:34;;;;;;;15.23;6.33;;;;;;;3.03;78.45;100950.22;5017708;28;20831;-85
2022/02/05 04:00:59;;;;;;;14.85;6.13;;;;;;;3.09;78.14;100970.94;5013129;28;20435;-85
2022/02/05 04:03:24;;;;;;;15.90;7.80;;;;;;;3.01;78.60;100976.38;5020842;28;20414;-86
2022/02/05 04:05:49;;;;;;;16.43;6.70;;;;;;;3.06;78.03;100984.66;5028809;28;20428;-86
2022/02/05 04:08:16;;;;;;;8.30;4.47;;;;;;;3.13;78.12;100992.78;5013450;28;20419;-86
2022/02/05 04:10:46;;;;;;;5.73;3.47;;;;;;;3.09;77.82;100989.69;5013453;28;20409;-86
2022/02/05 04:16:01;;;;;;;5.32;2.80;;;;;;;3.02;78.51;100991.44;5015462;28;20418;-85
2022/02/05 04:18:26;;;;;;;3.77;2.60;;;;;;;2.97;78.68;100991.13;5021095;28;20897;-86
2022/02/05 04:20:52;;;;;;;5.63;2.40;;;;;;;2.94;79.08;100996.00;5023603;28;20418;-86
2022/02/05 04:23:18;;;;;;;6.20;2.58;;;;;;;2.88;78.86;100997.59;5022761;28;20411;-85
2022/02/05 04:25:43;;;;;;;7.45;2.10;;;;;;;2.94;78.64;100998.69;5015197;28;20403;-86
2022/02/05 04:28:09;;;;;;;6.68;1.98;;;;;;;2.90;78.79;100994.72;5030360;28;20403;-86
2022/02/05 04:30:35;;;;;;;7.43;2.78;;;;;;;2.83;78.68;101005.31;5021669;28;20395;-84
2022/02/05 04:33:00;;;;;;;7.15;2.15;;;;;;;2.79;78.89;101008.56;5023777;28;20477;-87
2022/02/05 04:35:26;;;;;;;7.00;2.90;;;;;;;2.86;78.66;101004.13;5016094;28;20411;-86
2022/02/05 04:37:54;;;;;;;5.68;2.53;;;;;;;2.71;79.40;101014.78;5027081;28;20411;-86
2022/02/05 04:40:29;;;;;;;6.20;2.20;;;;;;;2.77;79.04;101014.06;5012287;28;20392;-87
2022/02/05 04:45:52;;;;;;;6.03;1.92;;;;;;;2.86;78.38;101010.34;5027383;28;20423;-85
2022/02/05 05:01:39;;;;;;;5.85;2.10;;;;;;;2.71;79.12;101013.97;5031892;28;20390;-86
2022/02/05 05:04:23;;;;;;;8.18;2.05;;;;;;;2.80;78.65;101019.06;5026081;28;20536;-86
2022/02/05 05:09:56;;;;;;;4.35;1.73;;;;;;;2.83;78.56;101033.94;5022771;28;20396;-85
2022/02/05 05:12:47;;;;;;;3.50;2.17;;;;;;;2.77;78.89;101038.16;5023423;28;20573;-85
2022/02/05 05:20:25;;;;;;;4.80;2.25;;;;;;;3.02;77.19;101044.16;5011614;28;20414;-86
2022/02/05 05:22:50;;;;;;;7.78;1.73;;;;;;;3.03;77.03;101043.94;5028765;28;20440;-86
2022/02/05 05:25:17;;;;;;;4.00;1.67;;;;;;;2.97;76.89;101051.88;5016911;28;20415;-86
2022/02/05 05:27:43;;;;;;;4.35;1.73;;;;;;;2.93;77.22;101053.28;5025641;28;20403;-85
2022/02/05 05:30:09;;;;;;;4.97;1.55;;;;;;;2.95;77.12;101057.41;5030511;28;20810;-86
2022/02/05 05:32:34;;;;;;;6.72;2.30;;;;;;;3.00;76.97;101057.69;5016785;28;20420;-85
2022/02/05 05:35:00;;;;;;;3.83;1.73;;;;;;;3.02;76.78;101061.03;5018011;28;20636;-85
2022/02/05 05:37:25;;;;;;;4.50;1.90;;;;;;;3.06;76.62;101061.50;5015037;28;20456;-85
2022/02/05 05:39:50;;;;;;;7.05;1.90;;;;;;;3.10;76.69;101068.97;5015579;28;20408;-85
2022/02/05 05:42:23;;;;;;;8.67;2.10;;;;;;;3.13;76.98;101067.78;5026886;28;20825;-85
2022/02/05 05:47:48;;;;;;;9.50;1.90;;;;;;;3.12;76.70;101068.81;5027759;28;20778;-86
2022/02/05 05:50:12;;;;;;;5.93;1.98;;;;;;;3.23;76.56;101073.72;5032440;28;20405;-85
2022/02/05 05:52:37;;;;;;;7.97;2.75;;;;;;;3.27;76.52;101071.50;5021221;28;20399;-85
2022/02/05 05:55:03;;;;;;;6.37;2.53;;;;;;;3.23;76.32;101078.25;5035077;28;20898;-86
2022/02/05 05:57:29;;;;;;;5.53;2.10;;;;;;;3.30;76.17;101081.84;5023254;28;20498;-86
2022/02/05 05:59:54;;;;;;;5.90;2.10;;;;;;;3.24;76.46;101085.25;5019337;28;20395;-85
2022/02/05 06:02:19;;;;;;;2.70;2.17;;;;;;;3.08;77.17;101086.25;5017930;28;20383;-85
2022/02/05 06:04:45;;;;;;;4.82;2.92;;;;;;;3.21;77.00;101091.00;5026106;28;20428;-86
2022/02/05 06:07:10;;;;;;;17.23;6.60;;;;;;;3.06;77.28;101085.63;5017889;28;20412;-86
2022/02/05 06:09:39;;;;;;;9.73;4.40;;;;;;;3.04;77.59;101091.13;5015579;28;20409;-86
2022/02/05 06:12:05;;;;;;;11.68;4.78;;;;;;;3.16;76.87;101094.22;5024655;28;20485;-86
2022/02/05 06:14:31;;;;;;;19.05;7.30;;;;;;;3.10;77.39;101094.94;5034464;28;20415;-86
2022/02/05 06:17:02;;;;;;;5.13;2.37;;;;;;;3.15;77.10;101089.88;5014799;28;20409;-86
2022/02/05 06:19:27;;;;;;;5.53;1.90;;;;;;;3.35;75.79;101092.88;5034021;28;20477;-86
2022/02/05 06:21:52;;;;;;;7.47;4.00;;;;;;;3.31;75.99;101096.91;5017824;28;20542;-86
2022/02/05 06:24:18;;;;;;;15.37;5.60;;;;;;;3.25;76.14;101103.84;5030817;28;20460;-86
2022/02/05 06:26:43;;;;;;;6.00;2.67;;;;;;;3.26;76.37;101099.31;5028453;28;20407;-86
2022/02/05 06:29:08;;;;;;;6.43;2.83;;;;;;;3.35;75.94;101098.22;5032883;28;20407;-86
2022/02/05 06:31:34;;;;;;;6.37;2.53;;;;;;;3.41;75.65;101094.81;5016903;28;20529;-86
2022/02/05 06:33:59;;;;;;;7.07;2.57;;;;;;;3.34;75.36;101094.72;5020012;28;20418;-84
2022/02/05 06:36:24;;;;;;;4.13;2.67;;;;;;;3.17;76.29;101095.03;5021317;28;20898;-85
2022/02/05 06:38:49;;;;;;;5.33;2.07;;;;;;;3.16;76.72;101096.06;5031918;28;20496;-86
2022/02/05 06:41:15;;;;;;;2.47;1.57;;;;;;;3.04;77.07;101092.97;5017471;28;20450;-86
2022/02/05 06:43:41;;;;;;;4.95;2.10;;;;;;;2.83;77.41;101103.53;5023584;28;20444;-86
2022/02/05 06:46:07;;;;;;;6.63;2.37;;;;;;;2.88;77.34;101109.19;5020591;28;20415;-87
2022/02/05 06:48:34;;;;;;;3.35;1.65;;;;;;;2.92;77.39;101099.78;5018007;28;20435;-85
2022/02/05 06:50:59;;;;;;;4.68;1.85;;;;;;;2.92;76.87;101114.00;4996962;28;20405;-87
2022/02/05 06:53:25;;;;;;;5.63;2.53;;;;;;;3.02;76.87;101111.06;5025648;28;20487;-86
2022/02/05 06:55:50;;;;;;;4.13;1.70;;;;;;;3.02;76.49;101111.91;5015568;28;20479;-86
2022/02/05 06:58:16;;;;;;;5.50;1.80;;;;;;;3.00;77.06;101116.59;5015724;28;20408;-86
2022/02/05 07:00:41;;;;;;;5.27;1.73;;;;;;;3.05;76.90;101116.91;5014953;28;20419;-86
2022/02/05 07:03:08;;;;;;;3.80;1.63;;;;;;;3.12;76.53;101123.22;5016161;28;20826;-87
2022/02/05 07:05:33;;;;;;;4.80;1.73;;;;;;;3.12;76.46;101131.25;5012960;28;20417;-86
2022/02/05 07:07:58;;;;;;;5.10;1.90;;;;;;;3.09;76.59;101130.78;5024920;28;20503;-87
2022/02/05 07:10:24;;;;;;;6.00;1.80;;;;;;;3.07;76.79;101141.66;5022683;28;20405;-89
2022/02/05 07:13:03;;;;;;;3.40;1.53;;;;;;;3.14;77.18;101144.44;5017951;28;20427;-88
2022/02/05 07:15:33;;;;;;;9.48;4.22;;;;;;;3.12;77.07;101152.69;5017076;28;20429;-88
2022/02/05 07:20:38;;;;;;;6.13;2.40;;;;;;;3.32;76.53;101153.00;5017693;28;20459;-89
2022/02/05 07:30:59;;;;;;;5.03;1.95;;;;;;;3.22;76.71;101163.13;5016690;28;20863;-90
2022/02/05 07:33:24;;;;;;;8.02;1.77;;;;;;;3.22;76.91;101155.09;5026590;28;20549;-85
2022/02/05 07:35:50;;;;;;;6.97;2.00;;;;;;;3.23;76.66;101155.94;5020872;28;20512;-81
2022/02/05 07:38:15;;;;;;;6.87;2.40;;;;;;;3.27;76.02;101158.06;5015028;28;20409;-90
2022/02/05 07:40:41;;;;;;;6.55;1.95;;;;;;;3.24;76.17;101160.25;5013121;28;20787;-90
2022/02/05 07:43:06;;;;;;;5.07;2.10;;;;;;;3.29;76.21;101163.25;5001777;28;20903;-90
2022/02/05 07:45:31;;;;;;;5.57;2.07;;;;;;;3.29;76.69;101173.97;5023207;28;20442;-85
2022/02/05 07:47:56;;;;;;;7.60;2.37;;;;;;;3.29;75.85;101165.94;5014700;28;20433;-86
2022/02/05 07:50:22;;;;;;;7.97;1.70;;;;;;;3.31;75.98;101169.25;5016634;28;20922;-85
2022/02/05 07:52:47;;;;;;;7.70;1.80;;;;;;;3.38;76.04;101176.41;5019349;28;20776;-85
2022/02/05 07:55:12;;;;;;;5.03;1.90;;;;;;;3.38;75.95;101180.91;5006643;28;20422;-86
2022/02/05 07:57:40;;;;;;;8.50;2.10;;;;;;;3.33;76.10;101188.63;5008719;28;20889;-86
2022/02/05 08:00:06;;;;;;;5.85;1.77;;;;;;;3.56;75.39;101189.44;5008266;28;20416;-85
2022/02/05 08:02:31;;;;;;;7.63;2.30;;;;;;;3.44;75.84;101185.53;5029695;28;20424;-84
2022/02/05 08:04:56;;;;;;;6.00;2.33;;;;;;;3.52;76.10;101190.84;5008724;28;20515;-87
2022/02/05 08:07:22;;;;;;;3.73;1.77;;;;;;;3.60;75.61;101196.13;4999232;28;20760;-86
2022/02/05 08:10:00;;;;;;;5.43;1.93;;;;;;;3.69;75.05;101191.53;5016729;28;20420;-85
2022/02/05 08:12:27;;;;;;;4.57;1.80;;;;;;;3.68;75.35;101190.69;4997463;28;20404;-85
2022/02/05 08:14:54;;;;;;;8.13;4.03;;;;;;;3.56;75.71;101195.63;5006977;28;21357;-85
2022/02/05 08:17:25;;;;;;;5.25;2.05;;;;;;;3.73;75.64;101201.69;5005351;28;20403;-89
2022/02/05 08:19:51;;;;;;;4.18;2.08;;;;;;;3.85;74.88;101205.59;5015742;28;20958;-86
2022/02/05 08:22:19;;;;;;;3.22;1.88;;;;;;;3.98;74.64;101199.59;5012089;28;21192;-85
2022/02/05 08:24:48;;;;;;;6.75;2.20;;;;;;;4.13;74.06;101206.63;4984728;28;20428;-85
2022/02/05 08:27:14;;;;;;;6.78;2.38;;;;;;;4.16;73.29;101205.41;4997020;28;20404;-85
2022/02/05 08:29:47;;;;;;;5.30;1.80;;;;;;;4.24;72.81;101208.03;5000100;28;20418;-83
2022/02/05 08:32:13;;;;;;;4.90;2.17;;;;;;;4.12;73.00;101204.97;5011127;28;21192;-84
2022/02/05 08:34:38;;;;;;;5.10;2.13;;;;;;;4.13;72.92;101211.16;5006622;28;20433;-87
2022/02/05 08:37:04;;;;;;;5.30;1.83;;;;;;;4.21;73.06;101220.97;5007542;28;20461;-84
2022/02/05 08:39:29;;;;;;;5.27;1.83;;;;;;;4.28;73.02;101211.16;5011974;28;20402;-84
2022/02/05 08:41:54;;;;;;;6.63;2.00;;;;;;;4.26;72.99;101218.56;5024012;28;20419;-83
2022/02/05 08:44:19;;;;;;;6.15;2.13;;;;;;;4.39;72.75;101224.94;5034866;28;20427;-85
2022/02/05 08:46:46;;;;;;;2.77;1.50;;;;;;;4.54;72.36;101227.63;5029738;28;20409;-87
2022/02/05 08:49:12;;;;;;;5.43;2.00;;;;;;;4.44;72.87;101219.88;5015076;28;20467;-90
2022/02/05 08:51:37;;;;;;;5.37;1.90;;;;;;;4.53;72.35;101218.72;5016081;28;20399;-88
2022/02/05 08:54:02;;;;;;;6.77;2.00;;;;;;;4.66;70.88;101226.13;5018036;28;20405;-89
2022/02/05 08:56:28;;;;;;;5.60;2.15;;;;;;;4.62;71.68;101228.34;5014313;28;20405;-86
2022/02/05 08:58:55;;;;;;;3.97;1.83;;;;;;;4.61;71.47;101228.53;5013111;28;20401;-88
2022/02/05 09:01:27;;;;;;;3.33;1.90;;;;;;;4.60;71.92;101232.25;5013915;28;20416;-88
2022/02/05 09:06:30;;;;;;;3.95;1.75;;;;;;;4.74;71.47;101226.03;5013220;28;20415;-86
2022/02/05 09:09:08;;;;;;;5.60;2.00;;;;;;;4.73;71.41;101224.34;5019041;28;20419;-87
2022/02/05 09:11:42;;;;;;;5.10;2.10;;;;;;;4.84;71.89;101231.91;5019866;28;20404;-90
2022/02/05 09:14:30;;;;;;;5.90;2.10;;;;;;;4.96;70.93;101221.50;5013121;28;20430;-85
2022/02/05 09:16:56;;;;;;;7.30;2.47;;;;;;;4.80;71.55;101235.16;5023959;28;20482;-85
2022/02/05 09:19:21;;;;;;;6.45;1.75;;;;;;;5.06;71.29;101235.47;5018322;28;20420;-85
2022/02/05 09:21:47;;;;;;;5.17;1.80;;;;;;;5.15;70.87;101228.94;5018748;28;20437;-84
2022/02/05 09:24:12;;;;;;;6.13;3.10;;;;;;;5.38;70.10;101226.06;5017489;28;20539;-87
2022/02/05 09:26:43;;;;;;;6.30;2.67;;;;;;;5.57;68.81;101226.25;5018475;28;20408;-83
2022/02/05 09:29:18;;;;;;;5.13;2.22;;;;;;;6.02;68.00;101213.41;5017701;28;20768;-83
2022/02/05 09:31:47;;;;;;;5.53;2.13;;;;;;;6.14;68.12;101219.88;5015808;28;20439;-81
2022/02/05 09:34:12;;;;;;;4.30;1.70;;;;;;;6.71;67.12;101217.72;5020837;28;20497;-81
2022/02/05 09:36:39;;;;;;;3.60;2.00;;;;;;;7.45;64.73;101216.84;5013322;28;20502;-81
2022/02/05 09:39:07;;;;;;;5.40;2.08;;;;;;;7.92;63.33;101219.34;5018054;28;21283;-81
2022/02/05 09:41:32;;;;;;;4.68;1.92;;;;;;;8.11;62.46;101215.78;5027496;28;20506;-81
2022/02/05 09:43:58;;;;;;;8.67;2.33;;;;;;;8.54;60.95;101218.00;5034791;28;20511;-81
2022/02/05 09:46:23;;;;;;;4.80;2.17;;;;;;;8.36;59.76;101218.69;5015767;28;20762;-81
2022/02/05 09:48:51;;;;;;;5.70;2.60;;;;;;;8.52;58.42;101214.69;5016603;28;21045;-81
2022/02/05 09:51:32;;;;;;;4.05;1.40;;;;;;;8.33;59.31;101222.63;5016924;28;20478;-81
2022/02/05 09:54:00;;;;;;;5.75;2.13;;;;;;;8.42;57.40;101227.81;5017527;28;20422;-81
2022/02/05 09:56:27;;;;;;;5.38;2.25;;;;;;;7.93;60.16;101230.97;5027882;28;20894;-82
2022/02/05 09:58:54;;;;;;;5.30;2.08;;;;;;;8.05;59.68;101232.84;5013137;28;20453;-81
2022/02/05 10:01:23;;;;;;;5.80;1.70;;;;;;;8.32;59.40;101234.50;5023103;28;20413;-80
2022/02/05 10:03:50;;;;;;;4.95;1.58;;;;;;;8.67;59.16;101245.81;5018160;28;20807;-81
2022/02/05 10:06:27;;;;;;;3.78;1.70;;;;;;;9.07;57.54;101246.47;5017895;28;21685;-81
2022/02/05 10:08:57;;;;;;;5.30;1.95;;;;;;;10.00;55.16;101235.81;5026087;28;20417;-83
2022/02/05 10:11:23;;;;;;;3.40;1.48;;;;;;;10.69;52.78;101235.53;5021198;28;20407;-81
2022/02/05 10:13:48;;;;;;;11.00;2.17;;;;;;;10.10;54.35;101244.28;5021374;28;20470;-81
2022/02/05 10:16:14;;;;;;;4.25;1.90;;;;;;;9.57;55.59;101243.88;5017873;28;20762;-83
2022/02/05 10:18:43;;;;;;;8.85;2.15;;;;;;;9.45;55.78;101254.53;5021885;28;20416;-84
2022/02/05 10:21:20;;;;;;;3.03;1.63;;;;;;;10.00;55.19;101254.78;5023387;28;20410;-80
2022/02/05 10:23:58;;;;;;;4.13;1.93;;;;;;;9.55;56.34;101254.91;5018797;28;20905;-82
2022/02/05 10:26:32;;;;;;;6.75;2.58;;;;;;;8.98;57.71;101272.09;5022928;28;20408;-82
2022/02/05 10:29:02;;;;;;;4.85;1.92;;;;;;;8.97;57.85;101273.13;5040027;28;20425;-80
2022/02/05 10:31:30;;;;;;;5.63;2.30;;;;;;;9.09;57.38;101273.31;5014147;28;20888;-82
2022/02/05 10:34:11;;;;;;;8.85;2.50;;;;;;;9.36;56.40;101266.69;5021216;28;20424;-82
2022/02/05 10:36:41;;;;;;;4.45;1.63;;;;;;;9.16;58.08;101268.66;5019264;28;20415;-82
2022/02/05 10:39:13;;;;;;;5.75;1.88;;;;;;;9.32;57.66;101271.69;5013482;28;20412;-82
2022/02/05 10:44:27;;;;;;;8.52;3.05;;;;;;;11.02;52.25;101264.97;5017178;28;20419;-80
2022/02/05 10:46:56;;;;;;;6.93;2.42;;;;;;;10.10;53.74;101272.19;5027172;28;20803;-83
2022/02/05 10:49:46;;;;;;;9.70;2.88;;;;;;;8.95;57.28;101277.09;5013079;28;20455;-80
2022/02/05 10:52:31;;;;;;;4.47;1.90;;;;;;;8.14;59.87;101271.22;5021597;28;20403;-80
2022/02/05 10:55:07;;;;;;;5.60;2.22;;;;;;;7.61;62.04;101276.63;5023218;28;20431;-80
2022/02/05 10:57:43;;;;;;;8.93;2.90;;;;;;;7.54;62.87;101267.69;5014472;28;20970;-81
2022/02/05 11:05:50;;;;;;;6.70;2.40;;;;;;;6.86;65.11;101266.03;5021493;28;20402;-80
2022/02/05 11:08:15;;;;;;;9.15;3.55;;;;;;;6.78;65.25;101267.03;5019134;28;20440;-80
2022/02/05 11:18:59;;;;;;;9.07;3.42;;;;;;;6.58;66.76;101268.00;5016092;28;20412;-80
2022/02/05 11:21:28;;;;;;;9.65;2.88;;;;;;;6.64;66.75;101251.88;5026250;28;20465;-81
2022/02/05 11:23:59;;;;;;;9.35;3.15;;;;;;;6.78;66.18;101255.47;5012317;28;20419;-81
2022/02/05 11:26:26;;;;;;;6.93;3.58;;;;;;;6.74;66.23;101246.09;5023504;28;20894;-80
2022/02/05 11:28:55;;;;;;;7.15;3.10;;;;;;;6.98;65.67;101239.38;5025679;28;20426;-87
2022/02/05 11:31:29;;;;;;;9.05;3.85;;;;;;;7.25;64.72;101246.47;5021390;28;20973;-84
2022/02/05 11:34:13;;;;;;;8.50;3.45;;;;;;;7.33;64.84;101243.59;5012481;28;20418;-84
2022/02/05 11:36:39;;;;;;;10.40;2.67;;;;;;;7.17;65.16;101247.50;5019096;28;20413;-90
2022/02/05 11:39:05;;;;;;;6.35;2.72;;;;;;;7.02;66.14;101235.22;5014166;28;20464;-83
2022/02/05 11:41:36;;;;;;;8.77;3.10;;;;;;;7.20;65.28;101230.94;5009048;28;20959;-81
2022/02/05 11:44:18;;;;;;;12.43;2.97;;;;;;;7.42;65.19;101226.19;5007083;28;20788;-82
2022/02/05 11:47:11;;;;;;;6.97;2.50;;;;;;;7.20;64.99;101220.16;5012769;28;20910;-81
2022/02/05 11:49:51;;;;;;;6.22;2.45;;;;;;;7.21;65.05;101221.78;5011482;28;20532;-81
2022/02/05 11:52:35;;;;;;;6.38;2.70;;;;;;;7.20;64.63;101233.63;5012685;28;20416;-81
2022/02/05 11:55:05;;;;;;;6.50;2.60;;;;;;;7.21;65.32;101223.69;5020671;28;20423;-81
2022/02/05 11:57:46;;;;;;;12.50;2.60;;;;;;;7.15;64.71;101217.22;5029024;28;20403;-82
2022/02/05 12:00:20;;;;;;;7.47;2.75;;;;;;;7.18;64.68;101219.50;5013379;28;20504;-82
2022/02/05 12:03:02;;;;;;;6.75;2.50;;;;;;;7.21;64.83;101215.59;5010269;28;20715;-81
2022/02/05 12:05:38;;;;;;;8.82;2.88;;;;;;;7.19;65.21;101209.56;5020259;28;20402;-80
2022/02/05 12:08:03;;;;;;;8.20;3.05;;;;;;;7.24;65.37;101215.19;5009687;28;20413;-82
2022/02/05 12:10:45;;;;;;;7.77;3.00;;;;;;;7.24;64.37;101209.78;5019485;28;20461;-80
2022/02/05 12:13:29;;;;;;;8.90;2.80;;;;;;;7.27;64.63;101201.28;5017780;28;20413;-83
2022/02/05 12:15:54;;;;;;;5.97;2.00;;;;;;;7.30;64.01;101201.72;5010162;28;20775;-82
2022/02/05 12:18:25;;;;;;;8.18;2.50;;;;;;;7.38;64.74;101207.91;5011965;28;20413;-82
2022/02/05 12:26:29;;;;;;;7.90;2.10;;;;;;;7.35;63.54;101197.53;5023459;28;20422;-83
2022/02/05 12:29:00;;;;;;;5.33;2.07;;;;;;;7.29;63.29;101197.34;5007922;28;20425;-82
2022/02/05 12:31:26;;;;;;;8.20;2.35;;;;;;;7.48;63.13;101200.25;5009887;28;20451;-84
2022/02/05 12:33:52;;;;;;;7.88;2.20;;;;;;;7.70;62.30;101202.56;5012082;28;20444;-82
2022/02/05 12:36:32;;;;;;;7.72;2.20;;;;;;;7.79;62.34;101203.16;5016876;28;20443;-83
2022/02/05 12:38:59;;;;;;;2.15;1.30;;;;;;;8.10;60.98;101202.53;5011264;28;20421;-83
2022/02/05 12:41:26;;;;;;;9.05;3.10;;;;;;;8.12;60.84;101195.03;5015219;28;20480;-82
2022/02/05 12:43:53;;;;;;;6.18;1.67;;;;;;;7.76;61.08;101199.03;5021910;28;20420;-82
2022/02/05 12:46:21;;;;;;;6.22;2.15;;;;;;;7.63;60.99;101192.81;5018199;28;20498;-83
2022/02/05 12:48:51;;;;;;;8.27;2.30;;;;;;;7.63;61.42;101193.63;5013177;28;20784;-90
2022/02/05 12:51:17;;;;;;;8.30;1.90;;;;;;;7.71;61.59;101192.56;5029550;28;20572;-90
2022/02/05 12:53:43;;;;;;;8.67;2.20;;;;;;;8.06;60.55;101195.88;5020701;28;20486;-86
2022/02/05 12:56:19;;;;;;;6.20;1.98;;;;;;;8.03;60.09;101201.69;5020643;28;20409;-87
2022/02/05 12:59:04;;;;;;;5.28;1.90;;;;;;;8.16;59.94;101189.00;5023298;28;20403;-88
2022/02/05 13:01:31;;;;;;;7.55;2.10;;;;;;;8.26;60.33;101189.41;5015723;28;20418;-86
2022/02/05 13:04:10;;;;;;;6.53;1.80;;;;;;;8.54;59.02;101189.13;5026016;28;20411;-82
2022/02/05 13:06:36;;;;;;;5.05;1.52;;;;;;;8.62;58.78;101186.19;5022476;28;20406;-85
2022/02/05 13:09:02;;;;;;;5.63;1.83;;;;;;;8.55;59.35;101188.09;4993887;28;20409;-82
2022/02/05 13:11:30;;;;;;;10.60;3.33;;;;;;;8.74;58.31;101183.63;5022778;28;20415;-81
2022/02/05 13:13:55;;;;;;;7.93;2.97;;;;;;;8.87;58.57;101180.84;5027691;28;20415;-81
2022/02/05 13:16:22;;;;;;;9.03;2.70;;;;;;;8.71;58.09;101175.94;5030569;28;20395;-81
2022/02/05 13:19:14;;;;;;;8.55;2.40;;;;;;;8.30;59.13;101170.91;5016725;28;20970;-81
2022/02/05 13:24:56;;;;;;;6.13;2.60;;;;;;;8.26;58.69;101167.78;5013645;28;20898;-81
2022/02/05 13:27:45;;;;;;;9.50;2.63;;;;;;;8.12;59.23;101168.03;5029391;28;20413;-82
2022/02/05 13:35:59;;;;;;;10.20;3.90;;;;;;;7.63;61.46;101147.78;5011555;28;20949;-82
2022/02/05 13:38:25;;;;;;;11.82;4.43;;;;;;;7.60;61.94;101156.28;5016828;28;20768;-81
2022/02/05 13:41:06;;;;;;;7.80;3.63;;;;;;;7.43;61.89;101155.03;5018930;28;20886;-81
2022/02/05 13:43:44;;;;;;;8.23;3.58;;;;;;;7.39;62.66;101144.88;5025381;28;20418;-82
2022/02/05 13:46:12;;;;;;;10.55;3.83;;;;;;;7.46;61.47;101154.63;5014239;28;20395;-81
2022/02/05 13:48:38;;;;;;;9.55;2.95;;;;;;;7.51;61.28;101159.41;5020476;28;20407;-81
2022/02/05 13:51:04;;;;;;;7.07;2.30;;;;;;;7.49;59.76;101150.69;5024563;28;20431;-80
2022/02/05 13:53:30;;;;;;;7.57;2.05;;;;;;;7.47;60.19;101159.00;5017804;28;20412;-81
2022/02/05 13:55:55;;;;;;;5.50;2.30;;;;;;;7.59;60.20;101161.88;5028848;28;20467;-81
2022/02/05 13:58:24;;;;;;;7.55;2.42;;;;;;;7.50;60.76;101155.03;5019573;28;20515;-81
2022/02/05 14:00:51;;;;;;;6.70;3.30;;;;;;;7.52;61.55;101153.78;5040427;28;20391;-81
2022/02/05 14:03:34;;;;;;;6.80;2.00;;;;;;;7.82;60.51;101151.47;5019566;28;20420;-81
2022/02/05 14:06:00;;;;;;;4.97;2.20;;;;;;;7.81;60.59;101160.59;5027942;28;20431;-81
2022/02/05 14:08:31;;;;;;;7.13;2.50;;;;;;;7.69;60.69;101156.91;5014981;28;20412;-81